Aeroporto :
LOGIN :

Iscrizione | Disclaimer

   EN    FR    IT 

 










Sommario :    VFR   VFR Marginale   IFR   IFR Intensivo   IFR Molto Intensivo
Visibilità : 
Base nubi : 
>= 8 km
>= 3000ft
5 / 8 km
1000 / 3000 ft
1500m / 5 km
500 / 1000 ft
800 / 1500m
200 / 500 ft
< 800m
< 200 ft
Simboli :   Temporali  Nebbia  Neve Forte  Precipitazioni Forti  Vento > 20 kt
SIGMETs :   Varie  Temporali  Ghiacco  Turbolenza  Onda orograficha  Ceneri Vulcaniche







- Altitudine del aeroporto : 40 ft
- Codice IATA : RMI


LIPR - Federico Fellini Int. Rimini

ULTIMO METAR :
  • 252120Z AUTO 20004KT 9999 NCD 22/18 Q1022

METARs OBSOLETI :
  • 252050Z 19003KT CAVOK 23/19 Q1022
  • 252020Z 20003KT CAVOK 25/19 Q1021
  • 251950Z VRB01KT CAVOK 24/20 Q1021
  • 251920Z VRB01KT CAVOK 25/20 Q1021
  • 251850Z VRB01KT CAVOK 27/20 Q1021

TAF TAF LIPR
Valido dal 25 a 21 ore il 26 a 06 ore UTC


252000Z 2521/2606 VRB04KT CAVOK
Nessun NOTAM noto per questo aeroporto.



MetMap, La meteo Aeronautica in un colpo d'occhio ! - Copyright ORBIFLY Dicembre 2007 - Disclaimer

ORBIFLY MET'MAP TEAM :

Programmazione e sviluppo : Alexandra Zaïnal
Concezione e sviluppo : Baudouin d'Aumeries
Co-Programmazione e sviluppo : Marc-Olivier Méhu
Supporto tecnico e logistico : Manuel Goepfert
Aiuto per la traduzione : Arnaldo La Scala

Contatto : metmap@orbifly.com




FONTI E CREDITI :

   NOAA